LHPR Airport Information

Runway Information
Runway 12 Length 4757 ft width 98 ft
Elevation 418 ft Threshold 0 ft Heading 120
Runway 30 Length 4757 ft Width 98 ft
Elevation 426 ft Threshold 0 ft Heading 300
Runway 12L Length 3720 ft width 140 ft
Elevation 0 ft Threshold 0 ft Heading 119
Runway 30R Length 3720 ft Width 140 ft
Elevation 0 ft Threshold 0 ft Heading 299
Airport Frequencies
Type AAS Name AFIS Frequency 129.9 MHZ
Type INFO Name BUDAPEST I Frequency 125.5 MHZ
Airport Navaids
Type VOR-DME Name Gyor Frequency 115100 KHZ
Type NDB Name Gyor Frequency 354 KHZ
Airport Weather Information & NOTAM
ADDS - METARS form results

(1444 UTC 22 July 2018)
 
METAR text: LHPR 221415Z 27007KT 230V290 9999 FEW033TCU BKN200 24/18 Q1009 RMK BLU
Conditions at: LHPR (GYOR , HU) observed 1415 UTC 22 July 2018
Temperature: 24.0°C (75°F)
Dewpoint: 18.0°C (64°F) [RH = 69%]
Pressure (altimeter): 29.79 inches Hg (1009.0 mb)
Winds: from the W (270 degrees) at 8 MPH (7 knots; 3.6 m/s)
Visibility: 6 or more miles (10+ km)
Ceiling: 20000 feet AGL
Clouds: few clouds at 3300 feet AGL
broken clouds at 20000 feet AGL
Weather: no significant weather observed at this time

METAR text: LHPR 221345Z 26007KT 9999 FEW033TCU SCT083 BKN200 24/18 Q1009 RMK BLU
Conditions at: LHPR (GYOR , HU) observed 1345 UTC 22 July 2018
Temperature: 24.0°C (75°F)
Dewpoint: 18.0°C (64°F) [RH = 69%]
Pressure (altimeter): 29.79 inches Hg (1009.0 mb)
Winds: from the W (260 degrees) at 8 MPH (7 knots; 3.6 m/s)
Visibility: 6 or more miles (10+ km)
Ceiling: 20000 feet AGL
Clouds: few clouds at 3300 feet AGL
scattered clouds at 8300 feet AGL
broken clouds at 20000 feet AGL
Weather: no significant weather observed at this time